Accueil
METAR-TAF:

METAR-TAF

Aéroports :

Aéroport de Saint-Étienne-Loire

Saint-Etienne, France

latitude: 45-32N, longitude: 004-18E, altitude: 404 m

Observation

Le bulletin a été fait il y a 22 minutes, à 09:00 UTC
Vent 7 kt de sud-est
Température 20°C
Humidité 43%
Pression 1011 hPa
Visibilité 10 km ou plus
pas de nuages en-dessous de 1500 mètres et pas de cumulonimbus.

METAR: LFMH 150900Z AUTO 14007KT CAVOK 20/07 Q1011 TEMPO 20010G20KT

Heure: 11:22 (09:22 UTC)

Prévision

Le bulletin a été fait il y a 1 heure et 22 minutes, à 08:00 UTC
Prévision valable du 15 à 09 UTC au 16 à 09 UTC
Vent 5 kt de sud/sud-ouest
Visibilité 10 km ou plus
pas de nuages en-dessous de 1500 mètres et pas de cumulonimbus.
Probabilité 30% :
Temporairement
du 15 à 09 UTC au 15 à 15 UTC
Vent 10 kt de sud/sud-ouest avec des rafales jusqu'à 20 kt

TAF: LFMH 150800Z 1509/1609 20005KT CAVOK PROB30 TEMPO 1509/1515 20010G20KT

Observations et prévisions météorologiques de plus de 4000 aéroports (messages METAR et TAF).

Les stations disponibles sont représentées par des disques jaunes et rouges sur la carte.

Passer la souris dessus pour voir le nom de la station.

Cliquer dessus pour voir les observations et prévisions météorologiques.

Pour changer de carte: cliquez sur les boutons verts avec une croix noire pour zoomer, sur le bouton vert avec un tiret pour effectuer un zoom arrière, ou sur les flèches vertes pour les cartes adjacentes.


METAR-TAF: